sensor_id;sensor_type;location;lat;lon;timestamp;temperature;humidity
13164;DHT22;6647;53.688;10.746;2022-10-16T00:01:10;14.80;1.00
13164;DHT22;6647;53.688;10.746;2022-10-16T00:02:32;14.80;1.00
13164;DHT22;6647;53.688;10.746;2022-10-16T00:03:53;14.90;1.00
13164;DHT22;6647;53.688;10.746;2022-10-16T00:05:14;14.90;1.00
13164;DHT22;6647;53.688;10.746;2022-10-16T00:06:35;14.80;1.00
13164;DHT22;6647;53.688;10.746;2022-10-16T00:07:56;14.80;1.00
13164;DHT22;6647;53.688;10.746;2022-10-16T00:09:16;14.80;1.00
13164;DHT22;6647;53.688;10.746;2022-10-16T00:10:38;14.80;1.00
13164;DHT22;6647;53.688;10.746;2022-10-16T00:11:59;14.80;1.00
13164;DHT22;6647;53.688;10.746;2022-10-16T00:13:20;14.80;1.00
13164;DHT22;6647;53.688;10.746;2022-10-16T00:14:41;14.80;1.00
13164;DHT22;6647;53.688;10.746;2022-10-16T00:16:04;14.80;1.00
13164;DHT22;6647;53.688;10.746;2022-10-16T00:17:25;14.80;1.00
13164;DHT22;6647;53.688;10.746;2022-10-16T00:18:46;14.80;1.00
13164;DHT22;6647;53.688;10.746;2022-10-16T00:20:07;14.80;1.00
13164;DHT22;6647;53.688;10.746;2022-10-16T00:21:29;14.70;1.00
13164;DHT22;6647;53.688;10.746;2022-10-16T00:22:50;14.70;1.00
13164;DHT22;6647;53.688;10.746;2022-10-16T00:24:11;14.70;1.00
13164;DHT22;6647;53.688;10.746;2022-10-16T00:25:32;14.70;1.00
13164;DHT22;6647;53.688;10.746;2022-10-16T00:26:53;14.70;1.00
13164;DHT22;6647;53.688;10.746;2022-10-16T00:28:14;14.70;1.00
13164;DHT22;6647;53.688;10.746;2022-10-16T00:29:35;14.70;1.00
13164;DHT22;6647;53.688;10.746;2022-10-16T00:30:56;14.70;1.00
13164;DHT22;6647;53.688;10.746;2022-10-16T00:32:19;14.70;1.00
13164;DHT22;6647;53.688;10.746;2022-10-16T00:33:40;14.70;1.00
13164;DHT22;6647;53.688;10.746;2022-10-16T00:35:04;14.70;1.00
13164;DHT22;6647;53.688;10.746;2022-10-16T00:36:26;14.70;1.00
13164;DHT22;6647;53.688;10.746;2022-10-16T00:37:46;14.70;1.00
13164;DHT22;6647;53.688;10.746;2022-10-16T00:39:07;14.70;1.00
13164;DHT22;6647;53.688;10.746;2022-10-16T00:40:28;14.60;1.00
13164;DHT22;6647;53.688;10.746;2022-10-16T00:41:50;14.70;1.00
13164;DHT22;6647;53.688;10.746;2022-10-16T00:45:02;14.60;1.00
13164;DHT22;6647;53.688;10.746;2022-10-16T00:46:27;14.60;1.00
13164;DHT22;6647;53.688;10.746;2022-10-16T00:47:51;14.60;1.00
13164;DHT22;6647;53.688;10.746;2022-10-16T00:49:15;14.60;1.00
13164;DHT22;6647;53.688;10.746;2022-10-16T00:50:36;14.60;1.00
13164;DHT22;6647;53.688;10.746;2022-10-16T00:51:57;14.50;1.00
13164;DHT22;6647;53.688;10.746;2022-10-16T00:53:19;14.50;1.00
13164;DHT22;6647;53.688;10.746;2022-10-16T00:54:40;14.50;1.00
13164;DHT22;6647;53.688;10.746;2022-10-16T00:56:02;14.50;1.00
13164;DHT22;6647;53.688;10.746;2022-10-16T00:57:23;14.50;1.00
13164;DHT22;6647;53.688;10.746;2022-10-16T00:58:44;14.50;1.00
13164;DHT22;6647;53.688;10.746;2022-10-16T01:00:08;14.50;1.00
13164;DHT22;6647;53.688;10.746;2022-10-16T01:01:29;14.50;1.00
13164;DHT22;6647;53.688;10.746;2022-10-16T01:02:57;14.50;1.00
13164;DHT22;6647;53.688;10.746;2022-10-16T01:04:19;14.50;1.00
13164;DHT22;6647;53.688;10.746;2022-10-16T01:05:46;14.50;1.00
13164;DHT22;6647;53.688;10.746;2022-10-16T01:11:01;14.40;1.00
13164;DHT22;6647;53.688;10.746;2022-10-16T01:13:58;14.40;1.00
13164;DHT22;6647;53.688;10.746;2022-10-16T01:15:46;14.40;1.00
13164;DHT22;6647;53.688;10.746;2022-10-16T01:17:13;14.40;1.00
13164;DHT22;6647;53.688;10.746;2022-10-16T01:20:23;14.30;1.00
13164;DHT22;6647;53.688;10.746;2022-10-16T01:21:47;14.30;1.00
13164;DHT22;6647;53.688;10.746;2022-10-16T01:25:05;14.30;1.00
13164;DHT22;6647;53.688;10.746;2022-10-16T01:26:40;14.30;1.00
13164;DHT22;6647;53.688;10.746;2022-10-16T01:28:06;14.30;1.00
13164;DHT22;6647;53.688;10.746;2022-10-16T01:31:19;14.30;1.00
13164;DHT22;6647;53.688;10.746;2022-10-16T01:32:45;14.30;1.00
13164;DHT22;6647;53.688;10.746;2022-10-16T01:34:15;14.20;1.00
13164;DHT22;6647;53.688;10.746;2022-10-16T01:35:40;14.20;1.00
13164;DHT22;6647;53.688;10.746;2022-10-16T01:37:09;14.20;1.00
13164;DHT22;6647;53.688;10.746;2022-10-16T01:38:37;14.20;1.00
13164;DHT22;6647;53.688;10.746;2022-10-16T01:40:00;14.20;1.00
13164;DHT22;6647;53.688;10.746;2022-10-16T01:41:30;14.20;1.00
13164;DHT22;6647;53.688;10.746;2022-10-16T01:43:00;14.20;1.00
13164;DHT22;6647;53.688;10.746;2022-10-16T01:44:25;14.20;1.00
13164;DHT22;6647;53.688;10.746;2022-10-16T01:45:48;14.20;1.00
13164;DHT22;6647;53.688;10.746;2022-10-16T01:47:10;14.20;1.00
13164;DHT22;6647;53.688;10.746;2022-10-16T01:48:34;14.20;1.00
13164;DHT22;6647;53.688;10.746;2022-10-16T01:49:58;14.10;1.00
13164;DHT22;6647;53.688;10.746;2022-10-16T01:51:21;14.10;1.00
13164;DHT22;6647;53.688;10.746;2022-10-16T01:52:46;14.10;1.00
13164;DHT22;6647;53.688;10.746;2022-10-16T01:54:09;14.10;1.00
13164;DHT22;6647;53.688;10.746;2022-10-16T01:55:35;14.10;1.00
13164;DHT22;6647;53.688;10.746;2022-10-16T01:56:57;14.10;1.00
13164;DHT22;6647;53.688;10.746;2022-10-16T01:58:18;14.10;1.00
13164;DHT22;6647;53.688;10.746;2022-10-16T01:59:47;14.10;1.00
13164;DHT22;6647;53.688;10.746;2022-10-16T02:01:11;14.10;1.00
13164;DHT22;6647;53.688;10.746;2022-10-16T02:02:34;14.00;1.00
13164;DHT22;6647;53.688;10.746;2022-10-16T02:03:59;14.00;1.00
13164;DHT22;6647;53.688;10.746;2022-10-16T02:07:00;14.00;1.00
13164;DHT22;6647;53.688;10.746;2022-10-16T02:08:22;14.00;1.00
13164;DHT22;6647;53.688;10.746;2022-10-16T02:09:45;14.00;1.00
13164;DHT22;6647;53.688;10.746;2022-10-16T02:11:06;14.00;1.00
13164;DHT22;6647;53.688;10.746;2022-10-16T02:12:33;14.00;1.00
13164;DHT22;6647;53.688;10.746;2022-10-16T02:14:00;14.00;1.00
13164;DHT22;6647;53.688;10.746;2022-10-16T02:15:22;14.00;1.00
13164;DHT22;6647;53.688;10.746;2022-10-16T02:16:45;14.00;1.00
13164;DHT22;6647;53.688;10.746;2022-10-16T02:18:06;13.90;1.00
13164;DHT22;6647;53.688;10.746;2022-10-16T02:19:28;13.90;1.00
13164;DHT22;6647;53.688;10.746;2022-10-16T02:20:57;13.90;1.00
13164;DHT22;6647;53.688;10.746;2022-10-16T02:24:35;13.90;1.00
13164;DHT22;6647;53.688;10.746;2022-10-16T02:25:59;13.90;1.00
13164;DHT22;6647;53.688;10.746;2022-10-16T02:27:33;13.90;1.00
13164;DHT22;6647;53.688;10.746;2022-10-16T02:28:59;13.90;1.00
13164;DHT22;6647;53.688;10.746;2022-10-16T02:30:28;13.80;1.00
13164;DHT22;6647;53.688;10.746;2022-10-16T02:31:55;13.80;1.00
13164;DHT22;6647;53.688;10.746;2022-10-16T02:33:19;13.80;1.00
13164;DHT22;6647;53.688;10.746;2022-10-16T02:34:42;13.80;1.00
13164;DHT22;6647;53.688;10.746;2022-10-16T02:36:04;13.80;1.00
13164;DHT22;6647;53.688;10.746;2022-10-16T02:37:26;13.80;1.00
13164;DHT22;6647;53.688;10.746;2022-10-16T02:38:47;13.80;1.00
13164;DHT22;6647;53.688;10.746;2022-10-16T02:40:09;13.90;1.00
13164;DHT22;6647;53.688;10.746;2022-10-16T02:41:31;13.80;1.00
13164;DHT22;6647;53.688;10.746;2022-10-16T02:42:53;13.80;1.00
13164;DHT22;6647;53.688;10.746;2022-10-16T02:44:14;13.80;1.00
13164;DHT22;6647;53.688;10.746;2022-10-16T02:45:35;13.80;1.00
13164;DHT22;6647;53.688;10.746;2022-10-16T02:46:56;13.80;1.00
13164;DHT22;6647;53.688;10.746;2022-10-16T02:48:17;13.80;1.00
13164;DHT22;6647;53.688;10.746;2022-10-16T02:49:38;13.80;1.00
13164;DHT22;6647;53.688;10.746;2022-10-16T02:50:59;13.80;1.00
13164;DHT22;6647;53.688;10.746;2022-10-16T02:52:19;13.80;1.00
13164;DHT22;6647;53.688;10.746;2022-10-16T02:53:40;13.80;1.00
13164;DHT22;6647;53.688;10.746;2022-10-16T02:55:02;13.80;1.00
13164;DHT22;6647;53.688;10.746;2022-10-16T02:56:23;13.80;1.00
13164;DHT22;6647;53.688;10.746;2022-10-16T02:57:44;13.80;1.00
13164;DHT22;6647;53.688;10.746;2022-10-16T02:59:05;13.80;1.00
13164;DHT22;6647;53.688;10.746;2022-10-16T03:00:26;13.80;1.00
13164;DHT22;6647;53.688;10.746;2022-10-16T03:01:47;13.70;1.00
13164;DHT22;6647;53.688;10.746;2022-10-16T03:03:07;13.70;1.00
13164;DHT22;6647;53.688;10.746;2022-10-16T03:04:28;13.70;1.00
13164;DHT22;6647;53.688;10.746;2022-10-16T03:05:52;13.70;1.00
13164;DHT22;6647;53.688;10.746;2022-10-16T03:07:13;13.70;1.00
13164;DHT22;6647;53.688;10.746;2022-10-16T03:08:34;13.70;1.00
13164;DHT22;6647;53.688;10.746;2022-10-16T03:09:55;13.70;1.00
13164;DHT22;6647;53.688;10.746;2022-10-16T03:11:16;13.70;1.00
13164;DHT22;6647;53.688;10.746;2022-10-16T03:12:36;13.70;1.00
13164;DHT22;6647;53.688;10.746;2022-10-16T03:13:57;13.70;1.00
13164;DHT22;6647;53.688;10.746;2022-10-16T03:15:18;13.70;1.00
13164;DHT22;6647;53.688;10.746;2022-10-16T03:16:39;13.60;1.00
13164;DHT22;6647;53.688;10.746;2022-10-16T03:18:00;13.60;1.00
13164;DHT22;6647;53.688;10.746;2022-10-16T03:19:21;13.60;1.00
13164;DHT22;6647;53.688;10.746;2022-10-16T03:20:45;13.60;1.00
13164;DHT22;6647;53.688;10.746;2022-10-16T03:22:05;13.60;1.00
13164;DHT22;6647;53.688;10.746;2022-10-16T03:23:27;13.60;1.00
13164;DHT22;6647;53.688;10.746;2022-10-16T03:24:48;13.60;1.00
13164;DHT22;6647;53.688;10.746;2022-10-16T03:26:09;13.60;1.00
13164;DHT22;6647;53.688;10.746;2022-10-16T03:27:30;13.60;1.00
13164;DHT22;6647;53.688;10.746;2022-10-16T03:28:51;13.60;1.00
13164;DHT22;6647;53.688;10.746;2022-10-16T03:30:12;13.60;1.00
13164;DHT22;6647;53.688;10.746;2022-10-16T03:31:33;13.50;1.00
13164;DHT22;6647;53.688;10.746;2022-10-16T03:32:54;13.50;1.00
13164;DHT22;6647;53.688;10.746;2022-10-16T03:34:15;13.60;1.00
13164;DHT22;6647;53.688;10.746;2022-10-16T03:35:36;13.50;1.00
13164;DHT22;6647;53.688;10.746;2022-10-16T03:36:56;13.50;1.00
13164;DHT22;6647;53.688;10.746;2022-10-16T03:38:17;13.50;1.00
13164;DHT22;6647;53.688;10.746;2022-10-16T03:39:38;13.50;1.00
13164;DHT22;6647;53.688;10.746;2022-10-16T03:40:59;13.50;1.00
13164;DHT22;6647;53.688;10.746;2022-10-16T03:42:20;13.50;1.00
13164;DHT22;6647;53.688;10.746;2022-10-16T03:43:41;13.50;1.00
13164;DHT22;6647;53.688;10.746;2022-10-16T03:45:02;13.50;1.00
13164;DHT22;6647;53.688;10.746;2022-10-16T03:46:23;13.50;1.00
13164;DHT22;6647;53.688;10.746;2022-10-16T03:47:44;13.40;1.00
13164;DHT22;6647;53.688;10.746;2022-10-16T03:49:05;13.40;1.00
13164;DHT22;6647;53.688;10.746;2022-10-16T03:50:26;13.50;1.00
13164;DHT22;6647;53.688;10.746;2022-10-16T03:51:46;13.40;1.00
13164;DHT22;6647;53.688;10.746;2022-10-16T03:53:07;13.40;1.00
13164;DHT22;6647;53.688;10.746;2022-10-16T03:54:28;13.40;1.00
13164;DHT22;6647;53.688;10.746;2022-10-16T03:55:49;13.40;1.00
13164;DHT22;6647;53.688;10.746;2022-10-16T03:57:10;13.40;1.00
13164;DHT22;6647;53.688;10.746;2022-10-16T03:58:31;13.40;1.00
13164;DHT22;6647;53.688;10.746;2022-10-16T03:59:51;13.40;1.00
13164;DHT22;6647;53.688;10.746;2022-10-16T04:01:12;13.40;1.00
13164;DHT22;6647;53.688;10.746;2022-10-16T04:02:36;13.30;1.00
13164;DHT22;6647;53.688;10.746;2022-10-16T04:03:57;13.30;1.00
13164;DHT22;6647;53.688;10.746;2022-10-16T04:05:17;13.30;1.00
13164;DHT22;6647;53.688;10.746;2022-10-16T04:06:38;13.30;1.00
13164;DHT22;6647;53.688;10.746;2022-10-16T04:08:03;13.30;1.00
13164;DHT22;6647;53.688;10.746;2022-10-16T04:09:24;13.30;1.00
13164;DHT22;6647;53.688;10.746;2022-10-16T04:10:45;13.30;1.00
13164;DHT22;6647;53.688;10.746;2022-10-16T04:12:06;13.30;1.00
13164;DHT22;6647;53.688;10.746;2022-10-16T04:13:27;13.30;1.00
13164;DHT22;6647;53.688;10.746;2022-10-16T04:14:47;13.20;1.00
13164;DHT22;6647;53.688;10.746;2022-10-16T04:16:08;13.30;1.00
13164;DHT22;6647;53.688;10.746;2022-10-16T04:17:29;13.30;1.00
13164;DHT22;6647;53.688;10.746;2022-10-16T04:18:50;13.30;1.00
13164;DHT22;6647;53.688;10.746;2022-10-16T04:20:11;13.20;1.00
13164;DHT22;6647;53.688;10.746;2022-10-16T04:21:32;13.20;1.00
13164;DHT22;6647;53.688;10.746;2022-10-16T04:22:52;13.20;1.00
13164;DHT22;6647;53.688;10.746;2022-10-16T04:24:13;13.20;1.00
13164;DHT22;6647;53.688;10.746;2022-10-16T04:25:34;13.20;1.00
13164;DHT22;6647;53.688;10.746;2022-10-16T04:26:55;13.20;1.00
13164;DHT22;6647;53.688;10.746;2022-10-16T04:28:16;13.20;1.00
13164;DHT22;6647;53.688;10.746;2022-10-16T04:29:37;13.20;1.00
13164;DHT22;6647;53.688;10.746;2022-10-16T04:30:57;13.20;1.00
13164;DHT22;6647;53.688;10.746;2022-10-16T04:32:18;13.10;1.00
13164;DHT22;6647;53.688;10.746;2022-10-16T04:33:42;13.10;1.00
13164;DHT22;6647;53.688;10.746;2022-10-16T04:35:03;13.10;1.00
13164;DHT22;6647;53.688;10.746;2022-10-16T04:36:24;13.10;1.00
13164;DHT22;6647;53.688;10.746;2022-10-16T04:37:45;13.10;1.00
13164;DHT22;6647;53.688;10.746;2022-10-16T04:39:06;13.10;1.00
13164;DHT22;6647;53.688;10.746;2022-10-16T04:40:27;13.10;1.00
13164;DHT22;6647;53.688;10.746;2022-10-16T04:41:48;13.10;1.00
13164;DHT22;6647;53.688;10.746;2022-10-16T04:43:09;13.10;1.00
13164;DHT22;6647;53.688;10.746;2022-10-16T04:44:30;13.10;1.00
13164;DHT22;6647;53.688;10.746;2022-10-16T04:45:51;13.10;1.00
13164;DHT22;6647;53.688;10.746;2022-10-16T04:47:12;13.10;1.00
13164;DHT22;6647;53.688;10.746;2022-10-16T04:48:33;13.10;1.00
13164;DHT22;6647;53.688;10.746;2022-10-16T04:49:54;13.10;1.00
13164;DHT22;6647;53.688;10.746;2022-10-16T04:51:15;13.00;1.00
13164;DHT22;6647;53.688;10.746;2022-10-16T04:52:36;13.00;1.00
13164;DHT22;6647;53.688;10.746;2022-10-16T04:53:57;13.10;1.00
13164;DHT22;6647;53.688;10.746;2022-10-16T04:55:18;13.10;1.00
13164;DHT22;6647;53.688;10.746;2022-10-16T04:56:39;13.00;1.00
13164;DHT22;6647;53.688;10.746;2022-10-16T04:58:11;13.00;1.00
13164;DHT22;6647;53.688;10.746;2022-10-16T04:59:32;13.00;1.00
13164;DHT22;6647;53.688;10.746;2022-10-16T05:00:53;13.00;1.00
13164;DHT22;6647;53.688;10.746;2022-10-16T05:02:14;13.00;1.00
13164;DHT22;6647;53.688;10.746;2022-10-16T05:03:35;13.00;1.00
13164;DHT22;6647;53.688;10.746;2022-10-16T05:04:56;13.00;1.00
13164;DHT22;6647;53.688;10.746;2022-10-16T05:06:17;13.00;1.00
13164;DHT22;6647;53.688;10.746;2022-10-16T05:07:37;13.00;1.00
13164;DHT22;6647;53.688;10.746;2022-10-16T05:08:58;12.90;1.00
13164;DHT22;6647;53.688;10.746;2022-10-16T05:10:20;13.00;1.00
13164;DHT22;6647;53.688;10.746;2022-10-16T05:11:41;13.00;1.00
13164;DHT22;6647;53.688;10.746;2022-10-16T05:13:01;13.00;1.00
13164;DHT22;6647;53.688;10.746;2022-10-16T05:14:22;12.90;1.00
13164;DHT22;6647;53.688;10.746;2022-10-16T05:15:47;12.90;1.00
13164;DHT22;6647;53.688;10.746;2022-10-16T05:17:08;12.90;1.00
13164;DHT22;6647;53.688;10.746;2022-10-16T05:18:29;12.90;1.00
13164;DHT22;6647;53.688;10.746;2022-10-16T05:19:50;12.90;1.00
13164;DHT22;6647;53.688;10.746;2022-10-16T05:21:11;12.90;1.00
13164;DHT22;6647;53.688;10.746;2022-10-16T05:22:32;12.90;1.00
13164;DHT22;6647;53.688;10.746;2022-10-16T05:23:53;12.90;1.00
13164;DHT22;6647;53.688;10.746;2022-10-16T05:25:15;12.90;1.00
13164;DHT22;6647;53.688;10.746;2022-10-16T05:26:36;12.90;1.00
13164;DHT22;6647;53.688;10.746;2022-10-16T05:27:57;12.90;1.00
13164;DHT22;6647;53.688;10.746;2022-10-16T05:29:18;12.90;1.00
13164;DHT22;6647;53.688;10.746;2022-10-16T05:30:39;12.90;1.00
13164;DHT22;6647;53.688;10.746;2022-10-16T05:32:00;12.90;1.00
13164;DHT22;6647;53.688;10.746;2022-10-16T05:33:23;12.90;1.00
13164;DHT22;6647;53.688;10.746;2022-10-16T05:34:45;12.90;1.00
13164;DHT22;6647;53.688;10.746;2022-10-16T05:36:08;12.90;1.00
13164;DHT22;6647;53.688;10.746;2022-10-16T05:37:29;12.80;1.00
13164;DHT22;6647;53.688;10.746;2022-10-16T05:38:51;12.80;1.00
13164;DHT22;6647;53.688;10.746;2022-10-16T05:40:12;12.80;1.00
13164;DHT22;6647;53.688;10.746;2022-10-16T05:41:33;12.80;1.00
13164;DHT22;6647;53.688;10.746;2022-10-16T05:42:55;12.80;1.00
13164;DHT22;6647;53.688;10.746;2022-10-16T05:44:16;12.80;1.00
13164;DHT22;6647;53.688;10.746;2022-10-16T05:45:37;12.80;1.00
13164;DHT22;6647;53.688;10.746;2022-10-16T05:46:58;12.80;1.00
13164;DHT22;6647;53.688;10.746;2022-10-16T05:48:19;12.80;1.00
13164;DHT22;6647;53.688;10.746;2022-10-16T05:49:40;12.80;1.00
13164;DHT22;6647;53.688;10.746;2022-10-16T05:51:06;12.80;1.00
13164;DHT22;6647;53.688;10.746;2022-10-16T05:52:27;12.80;1.00
13164;DHT22;6647;53.688;10.746;2022-10-16T05:53:48;12.80;1.00
13164;DHT22;6647;53.688;10.746;2022-10-16T05:55:09;12.80;1.00
13164;DHT22;6647;53.688;10.746;2022-10-16T05:56:30;12.70;1.00
13164;DHT22;6647;53.688;10.746;2022-10-16T05:57:54;12.70;1.00
13164;DHT22;6647;53.688;10.746;2022-10-16T05:59:15;12.70;1.00
13164;DHT22;6647;53.688;10.746;2022-10-16T06:00:36;12.70;1.00
13164;DHT22;6647;53.688;10.746;2022-10-16T06:01:57;12.70;1.00
13164;DHT22;6647;53.688;10.746;2022-10-16T06:03:17;12.70;1.00
13164;DHT22;6647;53.688;10.746;2022-10-16T06:04:38;12.70;1.00
13164;DHT22;6647;53.688;10.746;2022-10-16T06:05:59;12.70;1.00
13164;DHT22;6647;53.688;10.746;2022-10-16T06:07:27;12.70;1.00
13164;DHT22;6647;53.688;10.746;2022-10-16T06:08:49;12.70;1.00
13164;DHT22;6647;53.688;10.746;2022-10-16T06:10:09;12.70;1.00
13164;DHT22;6647;53.688;10.746;2022-10-16T06:11:32;12.70;1.00
13164;DHT22;6647;53.688;10.746;2022-10-16T06:12:53;12.70;1.00
13164;DHT22;6647;53.688;10.746;2022-10-16T06:14:14;12.70;1.00
13164;DHT22;6647;53.688;10.746;2022-10-16T06:15:35;12.70;1.00
13164;DHT22;6647;53.688;10.746;2022-10-16T06:16:55;12.70;1.00
13164;DHT22;6647;53.688;10.746;2022-10-16T06:18:16;12.70;1.00
13164;DHT22;6647;53.688;10.746;2022-10-16T06:19:37;12.70;1.00
13164;DHT22;6647;53.688;10.746;2022-10-16T06:20:58;12.70;1.00
13164;DHT22;6647;53.688;10.746;2022-10-16T06:22:19;12.70;1.00
13164;DHT22;6647;53.688;10.746;2022-10-16T06:23:40;12.70;1.00
13164;DHT22;6647;53.688;10.746;2022-10-16T06:25:01;12.70;1.00
13164;DHT22;6647;53.688;10.746;2022-10-16T06:26:24;12.70;1.00
13164;DHT22;6647;53.688;10.746;2022-10-16T06:27:45;12.70;1.00
13164;DHT22;6647;53.688;10.746;2022-10-16T06:29:06;12.70;1.00
13164;DHT22;6647;53.688;10.746;2022-10-16T06:30:27;12.70;1.00
13164;DHT22;6647;53.688;10.746;2022-10-16T06:31:48;12.70;1.00
13164;DHT22;6647;53.688;10.746;2022-10-16T06:33:10;12.70;1.00
13164;DHT22;6647;53.688;10.746;2022-10-16T06:34:31;12.70;1.00
13164;DHT22;6647;53.688;10.746;2022-10-16T06:35:52;12.70;1.00
13164;DHT22;6647;53.688;10.746;2022-10-16T06:37:12;12.70;1.00
13164;DHT22;6647;53.688;10.746;2022-10-16T06:38:34;12.70;1.00
13164;DHT22;6647;53.688;10.746;2022-10-16T06:39:55;12.70;1.00
13164;DHT22;6647;53.688;10.746;2022-10-16T06:41:19;12.70;1.00
13164;DHT22;6647;53.688;10.746;2022-10-16T06:42:40;12.70;1.00
13164;DHT22;6647;53.688;10.746;2022-10-16T06:44:05;12.70;1.00
13164;DHT22;6647;53.688;10.746;2022-10-16T06:45:27;12.70;1.00
13164;DHT22;6647;53.688;10.746;2022-10-16T06:46:47;12.70;1.00
13164;DHT22;6647;53.688;10.746;2022-10-16T06:48:08;12.70;1.00
13164;DHT22;6647;53.688;10.746;2022-10-16T06:49:29;12.70;1.00
13164;DHT22;6647;53.688;10.746;2022-10-16T06:51:09;12.70;1.00
13164;DHT22;6647;53.688;10.746;2022-10-16T06:52:30;12.70;1.00
13164;DHT22;6647;53.688;10.746;2022-10-16T06:53:53;12.70;1.00
13164;DHT22;6647;53.688;10.746;2022-10-16T06:55:14;12.80;1.00
13164;DHT22;6647;53.688;10.746;2022-10-16T06:56:35;12.80;1.00
13164;DHT22;6647;53.688;10.746;2022-10-16T06:57:56;12.80;1.00
13164;DHT22;6647;53.688;10.746;2022-10-16T06:59:17;12.80;1.00
13164;DHT22;6647;53.688;10.746;2022-10-16T07:00:38;12.80;1.00
13164;DHT22;6647;53.688;10.746;2022-10-16T07:01:59;12.80;1.00
13164;DHT22;6647;53.688;10.746;2022-10-16T07:03:20;12.80;1.00
13164;DHT22;6647;53.688;10.746;2022-10-16T07:04:41;12.80;1.00
13164;DHT22;6647;53.688;10.746;2022-10-16T07:06:03;12.80;1.00
13164;DHT22;6647;53.688;10.746;2022-10-16T07:07:24;12.80;1.00
13164;DHT22;6647;53.688;10.746;2022-10-16T07:08:47;12.80;1.00
13164;DHT22;6647;53.688;10.746;2022-10-16T07:10:08;12.80;1.00
13164;DHT22;6647;53.688;10.746;2022-10-16T07:11:29;12.80;1.00
13164;DHT22;6647;53.688;10.746;2022-10-16T07:12:50;12.80;1.00
13164;DHT22;6647;53.688;10.746;2022-10-16T07:14:19;12.80;1.00
13164;DHT22;6647;53.688;10.746;2022-10-16T07:15:40;12.90;1.00
13164;DHT22;6647;53.688;10.746;2022-10-16T07:17:02;12.90;1.00
13164;DHT22;6647;53.688;10.746;2022-10-16T07:18:23;12.90;1.00
13164;DHT22;6647;53.688;10.746;2022-10-16T07:19:47;12.90;1.00
13164;DHT22;6647;53.688;10.746;2022-10-16T07:21:13;13.00;1.00
13164;DHT22;6647;53.688;10.746;2022-10-16T07:22:34;13.00;1.00
13164;DHT22;6647;53.688;10.746;2022-10-16T07:23:57;13.00;1.00
13164;DHT22;6647;53.688;10.746;2022-10-16T07:25:19;13.10;1.00
13164;DHT22;6647;53.688;10.746;2022-10-16T07:26:40;13.10;1.00
13164;DHT22;6647;53.688;10.746;2022-10-16T07:28:01;13.10;1.00
13164;DHT22;6647;53.688;10.746;2022-10-16T07:29:22;13.10;1.00
13164;DHT22;6647;53.688;10.746;2022-10-16T07:30:43;13.20;1.00
13164;DHT22;6647;53.688;10.746;2022-10-16T07:32:04;13.20;1.00
13164;DHT22;6647;53.688;10.746;2022-10-16T07:33:25;13.20;1.00
13164;DHT22;6647;53.688;10.746;2022-10-16T07:34:46;13.30;1.00
13164;DHT22;6647;53.688;10.746;2022-10-16T07:36:07;13.30;1.00
13164;DHT22;6647;53.688;10.746;2022-10-16T07:37:28;13.40;1.00
13164;DHT22;6647;53.688;10.746;2022-10-16T07:38:49;13.40;1.00
13164;DHT22;6647;53.688;10.746;2022-10-16T07:40:10;13.40;1.00
13164;DHT22;6647;53.688;10.746;2022-10-16T07:41:31;13.50;1.00
13164;DHT22;6647;53.688;10.746;2022-10-16T07:42:53;13.50;1.00
13164;DHT22;6647;53.688;10.746;2022-10-16T07:44:15;13.60;1.00
13164;DHT22;6647;53.688;10.746;2022-10-16T07:45:36;13.60;1.00
13164;DHT22;6647;53.688;10.746;2022-10-16T07:46:58;13.60;1.00
13164;DHT22;6647;53.688;10.746;2022-10-16T07:48:19;13.60;1.00
13164;DHT22;6647;53.688;10.746;2022-10-16T07:49:40;13.70;1.00
13164;DHT22;6647;53.688;10.746;2022-10-16T07:51:03;13.70;1.00
13164;DHT22;6647;53.688;10.746;2022-10-16T07:52:24;13.80;1.00
13164;DHT22;6647;53.688;10.746;2022-10-16T07:53:45;13.80;1.00
13164;DHT22;6647;53.688;10.746;2022-10-16T07:55:07;13.80;1.00
13164;DHT22;6647;53.688;10.746;2022-10-16T07:56:30;13.80;1.00
13164;DHT22;6647;53.688;10.746;2022-10-16T07:57:51;13.90;1.00
13164;DHT22;6647;53.688;10.746;2022-10-16T07:59:12;13.90;1.00
13164;DHT22;6647;53.688;10.746;2022-10-16T08:00:33;13.90;1.00
13164;DHT22;6647;53.688;10.746;2022-10-16T08:01:54;13.90;1.00
13164;DHT22;6647;53.688;10.746;2022-10-16T08:03:15;13.90;1.00
13164;DHT22;6647;53.688;10.746;2022-10-16T08:04:36;13.90;1.00
13164;DHT22;6647;53.688;10.746;2022-10-16T08:05:58;13.90;1.00
13164;DHT22;6647;53.688;10.746;2022-10-16T08:07:19;13.90;1.00
13164;DHT22;6647;53.688;10.746;2022-10-16T08:08:40;13.90;1.00
13164;DHT22;6647;53.688;10.746;2022-10-16T08:10:01;13.90;1.00
13164;DHT22;6647;53.688;10.746;2022-10-16T08:11:22;14.00;1.00
13164;DHT22;6647;53.688;10.746;2022-10-16T08:12:44;14.00;1.00
13164;DHT22;6647;53.688;10.746;2022-10-16T08:14:04;14.00;1.00
13164;DHT22;6647;53.688;10.746;2022-10-16T08:15:26;14.00;1.00
13164;DHT22;6647;53.688;10.746;2022-10-16T08:16:47;14.10;1.00
13164;DHT22;6647;53.688;10.746;2022-10-16T08:18:09;14.10;1.00
13164;DHT22;6647;53.688;10.746;2022-10-16T08:19:30;14.20;1.00
13164;DHT22;6647;53.688;10.746;2022-10-16T08:20:56;14.20;1.00
13164;DHT22;6647;53.688;10.746;2022-10-16T08:22:18;14.20;1.00
13164;DHT22;6647;53.688;10.746;2022-10-16T08:23:38;14.20;1.00
13164;DHT22;6647;53.688;10.746;2022-10-16T08:24:59;14.20;1.00
13164;DHT22;6647;53.688;10.746;2022-10-16T08:26:20;14.30;1.00
13164;DHT22;6647;53.688;10.746;2022-10-16T08:27:41;14.30;1.00
13164;DHT22;6647;53.688;10.746;2022-10-16T08:29:02;14.30;1.00
13164;DHT22;6647;53.688;10.746;2022-10-16T08:30:24;14.40;1.00
13164;DHT22;6647;53.688;10.746;2022-10-16T08:31:44;14.40;1.00
13164;DHT22;6647;53.688;10.746;2022-10-16T08:33:05;14.40;1.00
13164;DHT22;6647;53.688;10.746;2022-10-16T08:34:27;14.50;1.00
13164;DHT22;6647;53.688;10.746;2022-10-16T08:35:54;14.50;1.00
13164;DHT22;6647;53.688;10.746;2022-10-16T08:37:15;14.50;1.00
13164;DHT22;6647;53.688;10.746;2022-10-16T08:38:36;14.50;1.00
13164;DHT22;6647;53.688;10.746;2022-10-16T08:39:57;14.50;1.00
13164;DHT22;6647;53.688;10.746;2022-10-16T08:47:57;14.60;1.00
13164;DHT22;6647;53.688;10.746;2022-10-16T08:49:19;14.60;1.00
13164;DHT22;6647;53.688;10.746;2022-10-16T08:50:41;14.70;1.00
13164;DHT22;6647;53.688;10.746;2022-10-16T08:52:02;14.70;1.00
13164;DHT22;6647;53.688;10.746;2022-10-16T08:53:28;14.70;1.00
13164;DHT22;6647;53.688;10.746;2022-10-16T08:54:53;14.80;1.00
13164;DHT22;6647;53.688;10.746;2022-10-16T08:56:14;14.80;1.00
13164;DHT22;6647;53.688;10.746;2022-10-16T08:57:35;14.80;1.00
13164;DHT22;6647;53.688;10.746;2022-10-16T08:58:58;14.80;1.00
13164;DHT22;6647;53.688;10.746;2022-10-16T09:00:19;14.80;1.00
13164;DHT22;6647;53.688;10.746;2022-10-16T09:01:45;14.90;1.00
13164;DHT22;6647;53.688;10.746;2022-10-16T09:03:17;14.90;1.00
13164;DHT22;6647;53.688;10.746;2022-10-16T09:14:50;15.10;1.00
13164;DHT22;6647;53.688;10.746;2022-10-16T09:17:50;15.20;1.00
13164;DHT22;6647;53.688;10.746;2022-10-16T09:21:55;15.30;1.00
13164;DHT22;6647;53.688;10.746;2022-10-16T09:23:26;15.40;1.00
13164;DHT22;6647;53.688;10.746;2022-10-16T09:24:48;15.40;1.00